Time;durP1;ratioP1;P1;durP2;ratioP2;P2;SDS_P1;SDS_P2;PMS_P1;PMS_P2;Temp;Humidity;BMP_temperature;BMP_pressure;BME280_temperature;BME280_humidity;BME280_pressure;Samples;Min_cycle;Max_cycle;Signal;HPM_P1;HPM_P2
2021/06/04 00:01:28;;;;;;;15.68;10.20;;;;;;;20.82;58.52;101932.75;5054876;28;20049;-49
2021/06/04 00:03:57;;;;;;;14.07;9.63;;;;;;;20.81;58.49;101935.84;5054524;28;20077;-49
2021/06/04 00:06:25;;;;;;;19.30;10.20;;;;;;;20.78;58.30;101937.28;5054950;28;20083;-51
2021/06/04 00:08:53;;;;;;;12.38;9.38;;;;;;;20.77;58.96;101929.28;5054562;28;20052;-51
2021/06/04 00:11:23;;;;;;;14.57;9.70;;;;;;;20.75;58.65;101934.28;5053999;28;20037;-48
2021/06/04 00:13:57;;;;;;;15.18;9.90;;;;;;;20.74;58.91;101929.91;5054535;28;20106;-50
2021/06/04 00:16:32;;;;;;;14.45;9.63;;;;;;;20.73;59.04;101926.28;5054515;28;20072;-49
2021/06/04 00:19:04;;;;;;;14.45;9.50;;;;;;;20.73;59.01;101925.47;5054442;28;20451;-50
2021/06/04 00:21:37;;;;;;;16.48;9.75;;;;;;;20.73;58.87;101931.81;5054364;28;20083;-51
2021/06/04 00:24:07;;;;;;;18.27;10.25;;;;;;;20.72;58.75;101932.16;5054485;28;20037;-49
2021/06/04 00:26:37;;;;;;;13.25;9.68;;;;;;;20.68;59.01;101926.41;5053765;28;20495;-49
2021/06/04 00:29:05;;;;;;;16.55;9.80;;;;;;;20.67;59.39;101924.78;5054079;28;20434;-49
2021/06/04 00:31:34;;;;;;;15.93;10.23;;;;;;;20.62;59.43;101928.47;5054118;28;20037;-48
2021/06/04 00:34:03;;;;;;;17.20;10.57;;;;;;;20.57;59.47;101919.47;5054162;28;20045;-48
2021/06/04 00:36:31;;;;;;;13.55;9.55;;;;;;;20.53;59.64;101907.31;5049786;28;20088;-50
2021/06/04 00:39:00;;;;;;;21.67;11.20;;;;;;;20.52;59.54;101914.00;5052029;28;20045;-49
2021/06/04 00:41:38;;;;;;;18.02;10.70;;;;;;;20.49;60.06;101911.81;5052120;28;20048;-49
2021/06/04 00:44:07;;;;;;;16.48;10.68;;;;;;;20.46;59.94;101906.91;5052837;28;20049;-49
2021/06/04 00:46:35;;;;;;;15.60;10.60;;;;;;;20.47;60.28;101909.38;5053003;28;20079;-49
2021/06/04 00:49:04;;;;;;;16.02;10.60;;;;;;;20.48;60.47;101911.00;5054104;28;20068;-51
2021/06/04 00:51:57;;;;;;;14.05;10.45;;;;;;;20.49;60.31;101909.06;5049231;28;20101;-48
2021/06/04 00:54:25;;;;;;;16.77;10.10;;;;;;;20.50;60.25;101919.03;5046531;28;20056;-49
2021/06/04 00:56:56;;;;;;;14.05;10.52;;;;;;;20.49;60.50;101922.91;5033019;28;20037;-50
2021/06/04 00:59:27;;;;;;;15.55;10.60;;;;;;;20.49;60.54;101917.38;5045379;28;20045;-49
2021/06/04 01:02:00;;;;;;;17.42;11.02;;;;;;;20.48;60.64;101915.72;5052469;28;20049;-51
2021/06/04 01:04:28;;;;;;;15.02;10.38;;;;;;;20.48;60.74;101929.56;5053359;28;20049;-49
2021/06/04 01:07:20;;;;;;;20.80;11.05;;;;;;;20.46;61.21;101929.06;5037223;28;20063;-49
2021/06/04 01:09:54;;;;;;;21.30;11.30;;;;;;;20.42;60.82;101928.88;5053073;28;20052;-50
2021/06/04 01:12:42;;;;;;;19.38;11.52;;;;;;;20.40;61.43;101926.41;5053300;28;20561;-49
2021/06/04 01:15:42;;;;;;;17.48;10.93;;;;;;;20.38;61.50;101914.00;5053624;28;20053;-49
2021/06/04 01:18:27;;;;;;;16.40;10.52;;;;;;;20.37;61.63;101912.34;5052021;28;20110;-51
2021/06/04 01:21:06;;;;;;;20.98;12.18;;;;;;;20.36;61.59;101916.25;5035793;28;20086;-48
2021/06/04 01:23:56;;;;;;;22.77;11.55;;;;;;;20.34;61.85;101912.97;5035541;28;20098;-49
2021/06/04 01:26:29;;;;;;;16.60;12.18;;;;;;;20.32;62.09;101907.72;5053061;28;20100;-48
2021/06/04 01:29:11;;;;;;;16.90;12.13;;;;;;;20.30;61.91;101912.78;5051917;28;20495;-48
2021/06/04 01:31:49;;;;;;;19.20;11.95;;;;;;;20.27;62.32;101910.59;5051885;28;20295;-47
2021/06/04 01:34:23;;;;;;;17.15;12.05;;;;;;;20.24;62.41;101908.44;5052892;28;20045;-49
2021/06/04 01:37:08;;;;;;;18.33;12.02;;;;;;;20.20;62.71;101904.66;5052079;28;20052;-50
2021/06/04 01:39:51;;;;;;;17.58;12.50;;;;;;;20.17;62.72;101905.28;5036246;28;20049;-49
2021/06/04 01:42:27;;;;;;;20.15;12.38;;;;;;;20.17;62.50;101913.56;5035514;28;20056;-50
2021/06/04 01:45:12;;;;;;;17.02;12.80;;;;;;;20.16;62.49;101911.94;5035397;28;20049;-48
2021/06/04 01:47:45;;;;;;;17.67;12.48;;;;;;;20.14;62.71;101917.78;5052395;28;20206;-52
2021/06/04 01:50:18;;;;;;;15.88;12.32;;;;;;;20.10;62.98;101911.19;5035113;28;20087;-51
2021/06/04 01:52:46;;;;;;;17.75;13.05;;;;;;;20.05;63.15;101911.31;5050997;28;20431;-50
2021/06/04 01:55:19;;;;;;;18.65;12.73;;;;;;;20.04;63.24;101911.63;5052301;28;20530;-49
2021/06/04 01:57:52;;;;;;;16.23;12.68;;;;;;;20.02;63.25;101914.69;5035146;28;20047;-49
2021/06/04 02:00:28;;;;;;;20.50;12.95;;;;;;;20.00;63.28;101917.75;5035194;28;20087;-49
2021/06/04 02:03:11;;;;;;;18.42;13.05;;;;;;;19.98;63.35;101925.53;5047838;28;20048;-49
2021/06/04 02:05:59;;;;;;;22.15;13.52;;;;;;;19.97;63.51;101912.84;5045994;28;20045;-50
2021/06/04 02:08:33;;;;;;;19.83;13.35;;;;;;;19.98;63.33;101920.00;5051040;28;20049;-48
2021/06/04 02:11:01;;;;;;;20.23;13.57;;;;;;;19.97;63.49;101929.44;5052075;28;20037;-50
2021/06/04 02:13:29;;;;;;;18.38;13.38;;;;;;;19.99;63.31;101926.38;5051284;28;20049;-50
2021/06/04 02:16:26;;;;;;;19.50;14.52;;;;;;;19.95;63.44;101926.16;5035751;28;20557;-53
2021/06/04 02:19:17;;;;;;;18.02;13.40;;;;;;;19.91;63.23;101922.34;5013329;28;20044;-51
2021/06/04 02:22:14;;;;;;;22.02;14.60;;;;;;;19.86;63.95;101922.44;5013548;28;20052;-49
2021/06/04 02:25:14;;;;;;;19.02;13.93;;;;;;;19.83;64.12;101934.13;5029885;28;20049;-48
2021/06/04 02:27:52;;;;;;;18.48;13.90;;;;;;;19.79;64.06;101933.91;5013840;28;20052;-51
2021/06/04 02:30:33;;;;;;;19.70;14.43;;;;;;;19.79;64.03;101935.84;5013857;28;20504;-50
2021/06/04 02:33:10;;;;;;;20.00;13.90;;;;;;;19.81;64.15;101936.38;5013837;28;20064;-49
2021/06/04 02:35:58;;;;;;;18.38;13.55;;;;;;;19.84;63.90;101934.94;5013430;28;20080;-50
2021/06/04 02:38:35;;;;;;;18.52;13.20;;;;;;;19.86;63.96;101944.56;5029321;28;20049;-52
2021/06/04 02:41:18;;;;;;;17.25;11.98;;;;;;;19.88;63.82;101941.50;5013478;28;20133;-49
2021/06/04 02:43:50;;;;;;;18.05;13.05;;;;;;;19.87;64.04;101940.69;5013176;28;20065;-49
2021/06/04 02:46:22;;;;;;;19.42;14.18;;;;;;;19.88;63.93;101942.31;5013337;28;20428;-48
2021/06/04 02:48:51;;;;;;;20.65;14.48;;;;;;;19.84;63.98;101952.34;5013530;28;20393;-46
2021/06/04 02:51:28;;;;;;;23.52;14.35;;;;;;;19.76;64.03;101951.09;5029166;28;20041;-48
2021/06/04 02:54:09;;;;;;;19.02;15.13;;;;;;;19.68;64.50;101954.56;5013396;28;20041;-49
2021/06/04 02:56:46;;;;;;;23.05;14.48;;;;;;;19.61;64.86;101954.09;5026916;28;20060;-48
2021/06/04 02:59:18;;;;;;;19.10;14.70;;;;;;;19.51;65.09;101955.09;5052138;28;20562;-48
2021/06/04 03:01:57;;;;;;;22.13;14.68;;;;;;;19.45;65.62;101956.28;5051847;28;20048;-48
2021/06/04 03:04:28;;;;;;;19.08;14.30;;;;;;;19.46;65.75;101960.69;5050149;28;20049;-50
2021/06/04 03:07:00;;;;;;;20.20;14.85;;;;;;;19.47;65.48;101956.81;5051621;28;20041;-50
2021/06/04 03:09:39;;;;;;;17.95;13.32;;;;;;;19.48;65.59;101954.84;5051683;28;20041;-49
2021/06/04 03:12:19;;;;;;;20.15;14.90;;;;;;;19.50;65.30;101961.72;5050369;28;20041;-48
2021/06/04 03:14:50;;;;;;;20.25;13.95;;;;;;;19.55;65.21;101966.34;5050167;28;20052;-49
2021/06/04 03:17:22;;;;;;;19.38;13.93;;;;;;;19.61;65.20;101967.09;5051909;28;20073;-49
2021/06/04 03:19:50;;;;;;;21.92;14.52;;;;;;;19.62;64.86;101964.03;5050065;28;20049;-50
2021/06/04 03:22:32;;;;;;;20.65;15.13;;;;;;;19.59;64.75;101962.69;5051180;28;20430;-51
2021/06/04 03:25:06;;;;;;;;;;;;;;;19.54;64.82;101960.00;5052028;28;20055;-51
2021/06/04 03:27:34;;;;;;;17.90;14.45;;;;;;;19.50;65.33;101958.97;5059766;28;20389;-52
2021/06/04 03:30:05;;;;;;;20.02;14.52;;;;;;;19.49;65.48;101957.31;5049037;28;20104;-53
2021/06/04 03:32:34;;;;;;;20.90;14.57;;;;;;;19.49;65.38;101964.81;5058646;28;20060;-50
2021/06/04 03:35:05;;;;;;;21.70;14.93;;;;;;;19.51;65.25;101959.81;5059338;28;20052;-48
2021/06/04 03:37:35;;;;;;;20.10;14.75;;;;;;;19.51;65.27;101966.16;5056725;28;20045;-49
2021/06/04 03:40:11;;;;;;;20.33;14.57;;;;;;;19.52;65.20;101959.47;5055727;28;20061;-52
2021/06/04 03:42:39;;;;;;;19.35;15.02;;;;;;;19.50;65.16;101958.97;5055297;28;20457;-51
2021/06/04 03:45:10;;;;;;;20.23;14.93;;;;;;;19.43;65.31;101964.03;5054321;28;20099;-48
2021/06/04 03:47:38;;;;;;;19.88;14.80;;;;;;;19.35;66.14;101959.22;5055220;28;20041;-48
2021/06/04 03:50:09;;;;;;;19.67;14.80;;;;;;;19.31;65.99;101966.44;5054851;28;20102;-48
2021/06/04 03:52:38;;;;;;;20.60;15.02;;;;;;;19.33;66.14;101973.31;5054979;28;20045;-47
2021/06/04 03:55:08;;;;;;;20.65;15.40;;;;;;;19.36;66.14;101967.22;5054739;28;20041;-50
2021/06/04 03:57:37;;;;;;;21.42;15.13;;;;;;;19.41;65.76;101960.78;5053764;28;20080;-50
2021/06/04 04:00:12;;;;;;;20.60;15.07;;;;;;;19.43;65.77;101966.81;5055161;28;20091;-48
2021/06/04 04:02:41;;;;;;;21.70;15.85;;;;;;;19.43;65.75;101961.28;5053472;28;20075;-49
2021/06/04 04:05:10;;;;;;;20.02;15.02;;;;;;;19.42;65.80;101959.66;5054295;28;20102;-49
2021/06/04 04:07:38;;;;;;;20.25;14.85;;;;;;;19.43;65.79;101966.00;5053901;28;20522;-48
2021/06/04 04:10:08;;;;;;;23.38;16.48;;;;;;;19.43;65.68;101958.50;5054359;28;20115;-50
2021/06/04 04:12:36;;;;;;;22.10;15.95;;;;;;;19.36;65.94;101958.06;5054654;28;20407;-50
2021/06/04 04:15:07;;;;;;;21.38;14.98;;;;;;;19.31;66.24;101961.75;5054405;28;20064;-48
2021/06/04 04:17:35;;;;;;;20.80;16.02;;;;;;;19.31;66.35;101966.44;5054444;28;20098;-51
2021/06/04 04:20:03;;;;;;;20.90;15.98;;;;;;;19.28;66.46;101972.56;5053925;28;20067;-50
2021/06/04 04:22:32;;;;;;;23.73;15.88;;;;;;;19.26;66.63;101969.28;5054449;28;20389;-52
2021/06/04 04:25:01;;;;;;;23.23;16.77;;;;;;;19.27;66.67;101974.53;5053919;28;20049;-51
2021/06/04 04:27:28;;;;;;;33.00;18.13;;;;;;;19.27;66.50;101973.72;5054522;28;20049;-50
2021/06/04 04:29:56;;;;;;;23.30;16.75;;;;;;;19.23;66.79;101976.22;5054190;28;20443;-50
2021/06/04 04:32:23;;;;;;;25.92;18.95;;;;;;;19.18;66.88;101968.03;5054147;28;20049;-50
2021/06/04 04:34:54;;;;;;;23.42;17.52;;;;;;;19.18;67.00;101978.25;5052664;28;20048;-49
2021/06/04 04:37:22;;;;;;;22.80;18.80;;;;;;;19.19;67.09;101974.38;5053900;28;20041;-49
2021/06/04 04:39:50;;;;;;;22.80;18.15;;;;;;;19.21;67.16;101988.72;5053934;28;20044;-48
2021/06/04 04:42:21;;;;;;;22.42;19.08;;;;;;;19.24;67.01;101983.41;5053546;28;20048;-49
2021/06/04 04:44:52;;;;;;;28.35;21.02;;;;;;;19.26;66.81;101980.34;5054187;28;20048;-52
2021/06/04 04:47:23;;;;;;;25.65;20.40;;;;;;;19.22;66.73;101987.56;5053340;28;20044;-49
2021/06/04 04:49:51;;;;;;;28.35;21.00;;;;;;;19.16;66.57;101981.31;5053744;28;20044;-49
2021/06/04 04:52:20;;;;;;;28.20;21.13;;;;;;;19.19;66.70;101982.66;5053994;28;20041;-49
2021/06/04 04:54:51;;;;;;;30.35;22.27;;;;;;;19.20;66.02;101976.03;5053682;28;20040;-49
2021/06/04 04:57:20;;;;;;;29.35;21.98;;;;;;;19.19;65.76;101977.13;5053520;28;20045;-51
2021/06/04 04:59:47;;;;;;;31.17;24.30;;;;;;;19.20;65.92;101976.03;5053467;28;20060;-49
2021/06/04 05:02:15;;;;;;;30.30;22.50;;;;;;;19.13;65.72;101977.19;5053024;28;20099;-47
2021/06/04 05:04:43;;;;;;;27.63;21.77;;;;;;;19.12;65.76;101978.34;5053160;28;20127;-48
2021/06/04 05:07:11;;;;;;;27.10;21.95;;;;;;;19.12;65.67;101981.09;5053771;28;20049;-49
2021/06/04 05:09:39;;;;;;;31.27;23.08;;;;;;;19.15;65.62;101974.97;5053300;28;20079;-49
2021/06/04 05:12:07;;;;;;;29.60;22.33;;;;;;;19.16;65.62;101976.59;5053079;28;20040;-51
2021/06/04 05:14:35;;;;;;;31.02;22.52;;;;;;;19.16;65.54;101973.84;5053119;28;20043;-49
2021/06/04 05:17:04;;;;;;;34.25;22.77;;;;;;;19.18;65.74;101981.03;5052789;28;20083;-48
2021/06/04 05:19:32;;;;;;;29.58;21.50;;;;;;;19.20;65.89;101981.53;5053489;28;20044;-48
2021/06/04 05:22:00;;;;;;;30.15;22.77;;;;;;;19.23;65.77;101990.06;5052824;28;20376;-50
2021/06/04 05:24:28;;;;;;;31.75;23.25;;;;;;;19.27;65.53;101988.34;5052680;28;20048;-51
2021/06/04 05:26:55;;;;;;;31.85;22.63;;;;;;;19.31;65.33;101983.03;5051584;28;20048;-53
2021/06/04 05:29:23;;;;;;;27.48;22.65;;;;;;;19.35;65.32;101984.09;5053245;28;20037;-51
2021/06/04 05:31:51;;;;;;;29.75;21.60;;;;;;;19.38;65.25;101994.53;5052139;28;20045;-52
2021/06/04 05:34:19;;;;;;;26.25;19.73;;;;;;;19.43;65.49;101980.63;5052825;28;20087;-49
2021/06/04 05:36:47;;;;;;;32.67;21.63;;;;;;;19.48;65.13;101986.09;5052507;28;20113;-53
2021/06/04 05:39:23;;;;;;;24.88;17.98;;;;;;;19.54;64.93;101984.06;5052545;28;20103;-54
2021/06/04 05:41:54;;;;;;;26.48;19.27;;;;;;;19.61;65.30;101989.22;5052281;28;20041;-51
2021/06/04 05:44:24;;;;;;;29.98;23.30;;;;;;;19.65;65.20;101998.53;5052433;28;20045;-51
2021/06/04 05:46:55;;;;;;;31.10;23.88;;;;;;;19.67;64.99;101996.31;5045906;28;20045;-50
2021/06/04 05:49:25;;;;;;;32.03;24.38;;;;;;;19.64;64.74;101991.38;5052402;28;20045;-50
2021/06/04 05:51:54;;;;;;;31.83;23.67;;;;;;;19.62;64.46;101988.09;5052163;28;20120;-49
2021/06/04 05:54:22;;;;;;;30.77;24.65;;;;;;;19.61;64.29;101990.03;5050986;28;20072;-51
2021/06/04 05:56:50;;;;;;;29.90;23.42;;;;;;;19.59;64.70;101998.63;5052196;28;20073;-52
2021/06/04 05:59:18;;;;;;;30.17;23.95;;;;;;;19.64;64.47;102005.22;5052214;28;20049;-51
2021/06/04 06:01:47;;;;;;;31.65;21.75;;;;;;;19.69;63.83;102000.44;5052340;28;20045;-51
2021/06/04 06:04:17;;;;;;;28.63;20.38;;;;;;;19.66;63.82;102000.19;5052239;28;20064;-48
2021/06/04 06:06:45;;;;;;;31.77;23.52;;;;;;;19.66;64.06;101991.91;5052081;28;20041;-49
2021/06/04 06:09:13;;;;;;;21.80;16.00;;;;;;;19.70;63.77;102006.78;5052206;28;20484;-50
2021/06/04 06:11:40;;;;;;;27.38;19.95;;;;;;;19.71;63.80;102008.44;5051704;28;20060;-50
2021/06/04 06:14:09;;;;;;;30.05;21.15;;;;;;;19.75;63.57;102006.72;5051742;28;20041;-51
2021/06/04 06:16:37;;;;;;;27.23;20.88;;;;;;;19.76;63.62;102009.16;5051457;28;20303;-49
2021/06/04 06:19:07;;;;;;;27.42;20.95;;;;;;;19.76;62.76;102017.47;5052403;28;20045;-50
2021/06/04 06:21:36;;;;;;;28.25;20.50;;;;;;;19.76;62.74;102013.88;5052036;28;20075;-54
2021/06/04 06:24:04;;;;;;;26.40;20.98;;;;;;;19.75;62.71;102013.06;5052012;28;20568;-51
2021/06/04 06:26:32;;;;;;;24.48;17.38;;;;;;;19.75;62.65;102013.06;5052044;28;20079;-51
2021/06/04 06:29:01;;;;;;;26.75;19.63;;;;;;;19.77;62.62;102019.13;5051908;28;20033;-52
2021/06/04 06:31:35;;;;;;;31.52;21.27;;;;;;;19.78;62.33;102014.41;5052051;28;20067;-49
2021/06/04 06:34:05;;;;;;;29.70;19.63;;;;;;;19.77;62.57;102016.38;5051897;28;20098;-50
2021/06/04 06:36:35;;;;;;;26.60;18.00;;;;;;;19.82;62.57;102011.84;5052147;28;20072;-50
2021/06/04 06:39:10;;;;;;;28.05;19.77;;;;;;;19.83;62.86;102014.31;5050631;28;20040;-50
2021/06/04 06:41:40;;;;;;;23.73;15.98;;;;;;;19.87;62.92;102017.31;5050732;28;20040;-49
2021/06/04 06:44:09;;;;;;;29.13;20.13;;;;;;;19.88;63.09;102013.44;5050985;28;20049;-52
2021/06/04 06:46:38;;;;;;;26.40;20.10;;;;;;;19.90;63.30;102017.53;5051778;28;20048;-53
2021/06/04 06:49:07;;;;;;;28.52;19.02;;;;;;;19.91;63.70;102013.63;5051708;28;20613;-51
2021/06/04 06:51:37;;;;;;;27.38;19.20;;;;;;;19.90;63.08;102011.19;5051954;28;20076;-52
2021/06/04 06:54:07;;;;;;;27.27;17.95;;;;;;;19.92;63.21;102017.25;5051669;28;20095;-52
2021/06/04 06:56:35;;;;;;;23.42;16.55;;;;;;;19.95;63.06;102014.69;5051322;28;20561;-53
2021/06/04 06:59:04;;;;;;;22.52;16.63;;;;;;;19.99;62.70;102010.19;5051195;28;20099;-51
2021/06/04 07:01:32;;;;;;;23.67;16.92;;;;;;;20.04;62.75;102017.59;5051485;28;20073;-50
2021/06/04 07:04:00;;;;;;;21.80;14.75;;;;;;;20.07;62.58;102010.63;5051301;28;20076;-51
2021/06/04 07:06:30;;;;;;;22.77;15.77;;;;;;;20.13;61.83;102020.47;5055493;28;20049;-55
2021/06/04 07:08:59;;;;;;;24.00;17.08;;;;;;;20.14;61.98;102014.63;5055578;28;20056;-49
2021/06/04 07:11:31;;;;;;;24.95;16.45;;;;;;;20.17;62.25;102018.72;5052702;28;20448;-50
2021/06/04 07:13:59;;;;;;;24.65;15.25;;;;;;;20.20;62.55;102016.19;5055019;28;20111;-50
2021/06/04 07:16:27;;;;;;;28.10;17.58;;;;;;;20.26;62.72;102013.31;5055181;28;20049;-52
2021/06/04 07:18:54;;;;;;;28.65;19.58;;;;;;;20.29;63.71;102021.81;5055349;28;20079;-49
2021/06/04 07:21:24;;;;;;;24.95;17.85;;;;;;;20.30;63.00;102022.66;5055627;28;20049;-50
2021/06/04 07:23:54;;;;;;;24.83;17.85;;;;;;;20.33;62.59;102025.63;5055536;28;20037;-50
2021/06/04 07:26:23;;;;;;;23.15;15.90;;;;;;;20.36;62.76;102024.22;5054919;28;20044;-51
2021/06/04 07:28:51;;;;;;;28.60;17.85;;;;;;;20.38;63.96;102022.78;5049091;28;20571;-49
2021/06/04 07:31:21;;;;;;;30.33;19.52;;;;;;;20.40;63.87;102025.25;5049068;28;20041;-51
2021/06/04 07:33:51;;;;;;;31.23;19.38;;;;;;;20.43;63.54;102019.91;5048570;28;20042;-50
2021/06/04 07:36:26;;;;;;;28.73;17.13;;;;;;;20.46;63.53;102034.28;5046373;28;20487;-54
2021/06/04 07:38:55;;;;;;;31.95;23.27;;;;;;;20.52;64.49;102030.28;5054654;28;20041;-51
2021/06/04 07:41:23;;;;;;;34.67;23.45;;;;;;;20.53;64.83;102035.50;5053598;28;20499;-52
2021/06/04 07:43:51;;;;;;;35.00;24.85;;;;;;;20.54;64.33;102030.78;5053635;28;20065;-51
2021/06/04 07:46:22;;;;;;;31.05;22.05;;;;;;;20.55;64.16;102033.28;5054687;28;20048;-51
2021/06/04 07:48:50;;;;;;;30.98;22.75;;;;;;;20.59;64.27;102028.78;5054054;28;20504;-49
2021/06/04 07:51:30;;;;;;;34.47;24.10;;;;;;;20.62;64.05;102024.56;5054072;28;20041;-51
2021/06/04 07:53:58;;;;;;;32.88;20.77;;;;;;;20.66;63.50;102027.53;5053116;28;20053;-50
2021/06/04 07:56:26;;;;;;;32.45;24.30;;;;;;;20.63;62.52;102034.50;5053738;28;20041;-51
2021/06/04 07:58:54;;;;;;;32.10;23.45;;;;;;;20.63;63.31;102040.06;5053896;28;20048;-53
2021/06/04 08:01:22;;;;;;;38.50;26.80;;;;;;;20.64;64.22;102036.19;5054121;28;20037;-49
2021/06/04 08:03:50;;;;;;;32.67;24.17;;;;;;;20.66;65.03;102031.16;5053383;28;20488;-48
2021/06/04 08:06:19;;;;;;;35.35;24.08;;;;;;;20.71;64.22;102030.19;5053996;28;20037;-48
2021/06/04 08:08:47;;;;;;;38.20;28.13;;;;;;;20.77;65.65;102035.34;5054261;28;20037;-49
2021/06/04 08:11:25;;;;;;;34.13;26.42;;;;;;;20.80;64.61;102034.72;5052811;28;20075;-49
2021/06/04 08:13:56;;;;;;;35.28;26.90;;;;;;;20.82;64.36;102032.47;5053967;28;20084;-55
2021/06/04 08:16:24;;;;;;;34.40;25.17;;;;;;;20.84;64.03;102030.22;5053370;28;20041;-51
2021/06/04 08:18:52;;;;;;;35.60;26.92;;;;;;;20.85;64.43;102023.56;5054105;28;20040;-50
2021/06/04 08:21:29;;;;;;;39.17;29.73;;;;;;;20.86;64.18;102029.91;5053617;28;20048;-49
2021/06/04 08:23:56;;;;;;;38.83;27.55;;;;;;;20.87;63.54;102022.41;5058751;28;20049;-50
2021/06/04 08:26:27;;;;;;;37.78;27.50;;;;;;;20.82;62.40;102020.56;5053430;28;20503;-52
2021/06/04 08:28:55;;;;;;;33.80;24.10;;;;;;;20.79;62.19;102023.97;5042561;28;20037;-50
2021/06/04 08:31:22;;;;;;;36.40;26.80;;;;;;;20.79;62.43;102018.44;5053887;28;20094;-51
2021/06/04 08:33:51;;;;;;;32.53;24.00;;;;;;;20.77;62.99;102024.25;5053975;28;20049;-51
2021/06/04 08:36:23;;;;;;;32.88;20.13;;;;;;;20.83;63.43;102017.50;5052255;28;20450;-49
2021/06/04 08:38:55;;;;;;;33.53;19.65;;;;;;;20.89;63.44;102014.63;5053135;28;20056;-48
2021/06/04 08:42:00;;;;;;;36.17;26.30;;;;;;;20.93;62.80;102015.66;5053087;28;20056;-51
2021/06/04 08:44:41;;;;;;;27.98;18.77;;;;;;;21.02;63.00;102013.78;5050873;28;20083;-49
2021/06/04 08:47:31;;;;;;;25.65;14.95;;;;;;;21.06;62.53;102007.31;5053535;28;20527;-51
2021/06/04 08:50:08;;;;;;;28.73;18.00;;;;;;;21.11;62.08;102000.84;5052700;28;20052;-49
2021/06/04 08:52:42;;;;;;;26.30;18.27;;;;;;;21.11;61.41;102003.59;5053468;28;20045;-48
2021/06/04 08:55:31;;;;;;;30.50;21.67;;;;;;;21.10;61.33;101999.19;5053123;28;20591;-52
2021/06/04 08:58:35;;;;;;;29.52;19.55;;;;;;;21.14;61.49;102005.78;5052106;28;20466;-50
2021/06/04 09:01:26;;;;;;;33.00;23.47;;;;;;;21.18;61.66;102015.09;5053253;28;20040;-49
2021/06/04 09:04:06;;;;;;;31.90;23.67;;;;;;;21.25;61.26;102007.16;5030939;28;20073;-51
2021/06/04 09:06:46;;;;;;;29.75;23.65;;;;;;;21.28;60.57;102011.25;5014307;28;20049;-52
2021/06/04 09:09:28;;;;;;;29.88;22.67;;;;;;;21.34;60.23;102018.34;5030558;28;20108;-51
2021/06/04 09:11:59;;;;;;;32.38;23.13;;;;;;;21.40;59.69;102024.63;4998275;28;20065;-52
2021/06/04 09:14:27;;;;;;;28.77;21.45;;;;;;;21.51;59.75;102022.44;5030698;28;20053;-50
2021/06/04 09:17:22;;;;;;;33.90;25.65;;;;;;;21.58;59.19;102026.41;5030972;28;20101;-50
2021/06/04 09:20:08;;;;;;;31.10;23.15;;;;;;;21.61;58.61;102020.22;5021066;28;20108;-49
2021/06/04 09:22:46;;;;;;;24.70;18.15;;;;;;;21.64;58.65;102019.59;5030616;28;20467;-49
2021/06/04 09:25:19;;;;;;;32.83;24.52;;;;;;;21.68;58.13;102023.41;5014129;28;20115;-51
2021/06/04 09:28:09;;;;;;;30.08;21.20;;;;;;;21.73;58.25;102021.63;5013473;28;20057;-49
2021/06/04 09:30:37;;;;;;;30.30;20.52;;;;;;;21.76;57.57;102021.81;5030719;28;20095;-50
2021/06/04 09:33:24;;;;;;;30.90;22.83;;;;;;;21.77;56.15;102022.63;5014549;28;20075;-51
2021/06/04 09:36:31;;;;;;;23.00;17.38;;;;;;;21.77;56.54;102017.06;5030428;28;20041;-52
2021/06/04 09:39:04;;;;;;;20.60;13.80;;;;;;;21.81;57.68;102018.91;5008138;28;20149;-53
2021/06/04 09:41:42;;;;;;;23.10;13.85;;;;;;;21.87;58.52;102016.84;5044022;28;20076;-54
2021/06/04 09:44:21;;;;;;;21.58;14.55;;;;;;;21.91;58.52;102015.91;5051401;28;20053;-52
2021/06/04 09:47:01;;;;;;;28.92;20.05;;;;;;;21.95;57.13;102013.31;5052597;28;20522;-51
2021/06/04 09:49:43;;;;;;;24.35;15.40;;;;;;;22.01;57.36;102011.25;5051230;28;20041;-52
2021/06/04 09:52:28;;;;;;;27.60;18.88;;;;;;;22.06;57.16;102014.69;5051938;28;20049;-52
2021/06/04 09:55:07;;;;;;;28.73;18.73;;;;;;;22.10;57.07;102012.94;5052590;28;20087;-53
2021/06/04 09:57:36;;;;;;;28.17;19.17;;;;;;;22.14;56.26;102007.53;5052149;28;20088;-52
2021/06/04 10:00:17;;;;;;;27.25;20.52;;;;;;;22.17;56.41;102012.44;5052504;28;20037;-49
2021/06/04 10:02:46;;;;;;;29.55;21.05;;;;;;;22.20;55.23;102005.44;5052095;28;20041;-51
2021/06/04 10:05:27;;;;;;;32.65;22.30;;;;;;;22.20;56.20;102005.44;5052048;28;20096;-49
2021/06/04 10:08:06;;;;;;;28.58;20.33;;;;;;;22.25;56.07;102017.28;5050552;28;20044;-52
2021/06/04 10:10:36;;;;;;;25.60;18.50;;;;;;;22.29;56.17;102009.13;5034414;28;20495;-51
2021/06/04 10:13:14;;;;;;;23.60;15.43;;;;;;;22.31;53.57;102009.63;5050788;28;20053;-47
2021/06/04 10:15:47;;;;;;;21.05;14.43;;;;;;;22.32;52.72;102008.47;5051086;28;20106;-47
2021/06/04 10:18:38;;;;;;;20.48;13.65;;;;;;;22.27;52.52;102003.06;5052297;28;20052;-48
2021/06/04 10:21:17;;;;;;;20.20;14.20;;;;;;;22.32;52.27;102012.09;5051774;28;20045;-48
2021/06/04 10:23:51;;;;;;;17.73;12.68;;;;;;;22.38;52.37;102010.00;5050426;28;20454;-48
2021/06/04 10:26:29;;;;;;;24.45;13.52;;;;;;;22.45;52.48;102004.78;5051880;28;20048;-49
2021/06/04 10:29:03;;;;;;;24.30;15.38;;;;;;;22.57;51.92;101995.03;5052196;28;20087;-58
2021/06/04 10:31:58;;;;;;;21.33;15.38;;;;;;;22.63;52.65;101996.53;5050938;28;20041;-50
2021/06/04 10:34:47;;;;;;;19.13;13.15;;;;;;;22.71;52.07;101990.19;5052055;28;20488;-51
2021/06/04 10:37:39;;;;;;;20.20;12.75;;;;;;;22.82;50.46;101994.28;5051851;28;20041;-49
2021/06/04 10:40:26;;;;;;;21.00;13.50;;;;;;;22.87;48.95;101987.75;5051347;28;20048;-50
2021/06/04 10:43:26;;;;;;;20.00;11.63;;;;;;;22.94;49.28;101990.88;5051641;28;20131;-49
2021/06/04 10:46:13;;;;;;;20.48;12.27;;;;;;;22.92;48.75;101982.88;5050136;28;20056;-49
2021/06/04 10:49:03;;;;;;;22.13;13.73;;;;;;;22.93;50.25;101992.84;5052076;28;20045;-50
2021/06/04 10:51:53;;;;;;;19.13;13.85;;;;;;;22.94;50.33;101977.81;4847110;28;10001025;-49
2021/06/04 10:54:36;;;;;;;22.63;14.45;;;;;;;22.92;50.14;101973.72;5060250;28;20826;-51
2021/06/04 10:57:23;;;;;;;20.20;14.52;;;;;;;22.94;50.69;101966.69;5049825;28;20041;-49
2021/06/04 11:00:05;;;;;;;23.80;16.52;;;;;;;23.01;50.52;101954.31;5048555;28;20048;-50
2021/06/04 11:02:46;;;;;;;19.10;13.48;;;;;;;23.01;51.14;101945.97;5050118;28;20102;-54
2021/06/04 11:05:45;;;;;;;23.45;13.07;;;;;;;23.06;51.14;101943.84;5047570;28;20458;-54
2021/06/04 11:08:31;;;;;;;19.88;12.88;;;;;;;23.12;49.30;101944.53;5049677;28;20041;-50
2021/06/04 11:11:11;;;;;;;16.90;10.48;;;;;;;23.13;49.02;101951.69;5049521;28;20080;-53
2021/06/04 11:13:54;;;;;;;18.10;11.85;;;;;;;23.17;48.87;101947.13;5049896;28;20098;-54
2021/06/04 11:16:49;;;;;;;19.55;9.57;;;;;;;23.20;47.72;101946.47;5047740;28;20087;-53
2021/06/04 11:19:34;;;;;;;17.95;10.43;;;;;;;23.20;47.59;101938.13;5045934;28;20049;-51
2021/06/04 11:22:20;;;;;;;20.40;13.68;;;;;;;23.24;49.68;101936.34;5033936;28;20051;-53
2021/06/04 11:25:06;;;;;;;18.13;11.18;;;;;;;23.27;49.60;101935.69;5033427;28;20052;-53
2021/06/04 11:27:45;;;;;;;34.95;19.27;;;;;;;23.28;49.57;101934.56;5049611;28;20052;-54
2021/06/04 11:30:18;;;;;;;20.55;12.43;;;;;;;23.31;49.09;101936.66;5050621;28;20388;-54
2021/06/04 11:33:05;;;;;;;19.92;12.13;;;;;;;23.36;49.22;101935.69;5050072;28;20566;-51
2021/06/04 11:35:39;;;;;;;19.92;13.35;;;;;;;23.42;49.05;101934.34;5050759;28;20033;-51
2021/06/04 11:38:11;;;;;;;19.60;11.85;;;;;;;23.44;49.10;101934.03;5050170;28;20041;-49
2021/06/04 11:40:42;;;;;;;23.65;15.43;;;;;;;23.41;49.46;101929.16;5050351;28;20037;-50
2021/06/04 11:43:29;;;;;;;91.60;47.40;;;;;;;23.37;51.59;101929.78;5049633;28;20071;-50